Meike-b — V2QR4 — position and weather

sailwx.info

Track history (hours):
 
Tides and Currents Weather Stations Pressure Air Temp Water Temp Dewpoint Dewpoint Depression Visibility Wind Speed Wind Dir Waves Ship Positions

Meike-b

Last reported at 2018-Jun-19 19:37 UTC. Time now 2018-Jun-21 12:23 UTC.
Position N 38°58' W 010°05'.

Length 96 m; draft 5.5 m.

Type: Cargo ship. MMSI: 304958000.

Date/timePositionNaut miles runAvg speedWind from/ knotsBaromVisibWave heightAir tempDewpointWater temp
2018-Jun-19 19:37N 38°58' W 010°05'  
2018-Jun-15 21:58N 49°40' W 000°46'4 7.5
2018-Jun-15 21:30N 49°39' W 000°41'4 7.3
2018-Jun-15 21:00N 49°38' W 000°36'4 7.1
2018-Jun-15 20:30N 49°36' W 000°31'4 7.3
2018-Jun-15 20:00N 49°35' W 000°26'4 7.8
2018-Jun-15 19:30N 49°33' W 000°20'4 8.7
2018-Jun-15 19:00N 49°31' W 000°14'5 9.6
2018-Jun-15 18:30N 49°30' W 000°07'5 9.7
2018-Jun-15 18:01N 49°28' W 000°00'510.8
2018-Jun-15 17:30N 49°26' E 000°08'612.8
2018-Jun-15 17:00N 49°26' E 000°17'612.5
2018-Jun-15 16:31N 49°28' E 000°27'5 9.8
2018-Jun-15 16:01N 49°27' E 000°34'5 9.4
2018-Jun-15 15:30N 49°29' E 000°40'4 8.5
2018-Jun-15 15:00N 49°30' E 000°46'4 8.8
2018-Jun-15 14:30N 49°26' E 000°48'3 6.6
2018-Jun-15 14:00N 49°24' E 000°52'4 8.0
2018-Jun-15 13:30N 49°28' E 000°52'3 5.5
2018-Jun-15 13:00N 49°28' E 000°56'4 7.9
2018-Jun-15 12:30N 49°24' E 000°56'3 6.6
2018-Jun-15 12:00N 49°21' E 000°57'3 7.2
2018-Jun-15 11:30N 49°24' E 001°01'3 6.1
2018-Jun-15 11:01N 49°26' E 001°03'0 0.2
2018-Jun-15 10:29N 49°26' E 001°03'0 0.0
2018-Jun-15 09:50N 49°26' E 001°03'0 0.0
2018-Jun-15 09:29N 49°26' E 001°03'0 0.0
2018-Jun-15 08:59N 49°26' E 001°03'0 0.0
2018-Jun-15 08:29N 49°26' E 001°03'0 0.0
2018-Jun-15 07:59N 49°26' E 001°03'0 0.0
2018-Jun-15 07:28N 49°26' E 001°03'0 0.0
2018-Jun-15 06:59N 49°26' E 001°03'0 0.0
2018-Jun-15 06:22N 49°26' E 001°03'0 0.0
2018-Jun-15 05:52N 49°26' E 001°03'0 0.0
2018-Jun-15 05:28N 49°26' E 001°03'0 0.0
2018-Jun-15 04:58N 49°26' E 001°03'0 0.0
2018-Jun-15 04:28N 49°26' E 001°03'0 0.0
2018-Jun-15 03:58N 49°26' E 001°03'0 0.0
2018-Jun-15 03:28N 49°26' E 001°03'0 0.0
2018-Jun-15 02:58N 49°26' E 001°03'0 0.0
2018-Jun-15 02:28N 49°26' E 001°03'0 0.0
2018-Jun-15 01:58N 49°26' E 001°03'0 0.0
2018-Jun-15 01:28N 49°26' E 001°03'0 0.0
2018-Jun-15 00:52N 49°26' E 001°03'0 0.0
2018-Jun-15 00:28N 49°26' E 001°03'0 0.0
2018-Jun-14 23:55N 49°26' E 001°03'0 0.0
2018-Jun-14 23:28N 49°26' E 001°03'0 0.0
2018-Jun-14 22:58N 49°26' E 001°03'0 0.0
2018-Jun-14 22:28N 49°26' E 001°03'0 0.0
2018-Jun-14 21:58N 49°26' E 001°03'0 0.0
2018-Jun-14 21:28N 49°26' E 001°03'0 0.0
2018-Jun-14 20:58N 49°26' E 001°03'0 0.0
2018-Jun-14 20:25N 49°26' E 001°03'0 0.0
2018-Jun-14 19:58N 49°26' E 001°03'0 0.0
2018-Jun-14 19:28N 49°26' E 001°03'0 0.0
2018-Jun-14 18:58N 49°26' E 001°03'0 0.0
2018-Jun-14 18:28N 49°26' E 001°03'0 0.0
2018-Jun-14 17:58N 49°26' E 001°03'0 1.0
2018-Jun-14 17:30N 49°26' E 001°02'3 5.1
2018-Jun-14 17:00N 49°24' E 001°01'0 0.5
2018-Jun-14 16:26N 49°24' E 001°01'0 0.0
2018-Jun-14 15:56N 49°23' E 001°01'0 0.0
2018-Jun-14 15:26N 49°24' E 001°01'0 0.0
2018-Jun-14 14:56N 49°24' E 001°01'0 0.0
2018-Jun-14 14:26N 49°24' E 001°01'0 0.0
2018-Jun-14 13:56N 49°24' E 001°01'0 0.0
2018-Jun-14 13:25N 49°24' E 001°01'0 0.0
2018-Jun-14 12:55N 49°24' E 001°01'0 0.0
2018-Jun-14 12:25N 49°24' E 001°01'0 0.0
2018-Jun-14 11:58N 49°23' E 001°01'0 0.0
2018-Jun-14 11:25N 49°24' E 001°01'0 0.0
2018-Jun-14 10:55N 49°24' E 001°01'0 0.0
2018-Jun-14 10:25N 49°24' E 001°01'0 0.0
2018-Jun-14 09:55N 49°24' E 001°01'0 0.0
2018-Jun-14 09:25N 49°24' E 001°01'0 0.0
2018-Jun-14 08:55N 49°24' E 001°01'0 0.0
2018-Jun-14 08:28N 49°24' E 001°01'0 0.0
2018-Jun-14 07:55N 49°24' E 001°01'0 0.0
2018-Jun-14 07:28N 49°24' E 001°01'0 0.0
2018-Jun-14 06:58N 49°24' E 001°01'0 0.0
2018-Jun-14 06:25N 49°24' E 001°01'0 0.0
2018-Jun-14 05:58N 49°24' E 001°01'0 0.0
2018-Jun-14 05:28N 49°24' E 001°01'0 0.0
2018-Jun-14 04:58N 49°23' E 001°01'0 0.0
2018-Jun-14 04:28N 49°23' E 001°01'0 0.0
2018-Jun-14 03:58N 49°23' E 001°01'0 0.0
2018-Jun-14 03:28N 49°24' E 001°01'0 0.0
2018-Jun-14 02:58N 49°24' E 001°01'0 0.0
2018-Jun-14 02:28N 49°24' E 001°01'0 0.0
2018-Jun-14 01:55N 49°24' E 001°01'0 0.0
2018-Jun-14 01:28N 49°24' E 001°01'0 0.0
2018-Jun-14 00:58N 49°24' E 001°01'0 0.0
2018-Jun-14 00:28N 49°24' E 001°01'0 0.0
2018-Jun-13 23:58N 49°24' E 001°01'0 0.0
2018-Jun-13 23:28N 49°24' E 001°01'0 0.0
2018-Jun-13 22:58N 49°24' E 001°01'0 0.0
2018-Jun-13 22:25N 49°24' E 001°01'0 0.0
2018-Jun-13 21:55N 49°24' E 001°01'0 0.0
2018-Jun-13 21:28N 49°24' E 001°01'0 0.0
2018-Jun-13 20:49N 49°24' E 001°01'0 0.0
2018-Jun-13 20:28N 49°24' E 001°01'0 0.0
2018-Jun-13 19:55N 49°24' E 001°01'0 0.0
2018-Jun-13 19:25N 49°24' E 001°01'0 0.0
2018-Jun-13 18:58N 49°24' E 001°01'0 0.0
2018-Jun-13 18:19N 49°24' E 001°01'0 0.0
2018-Jun-13 17:55N 49°24' E 001°01'0 0.0
2018-Jun-13 17:28N 49°23' E 001°01'0 0.0
2018-Jun-13 16:58N 49°24' E 001°01'0 0.0
2018-Jun-13 16:25N 49°24' E 001°01'0 0.0
2018-Jun-13 15:55N 49°24' E 001°01'0 0.0
2018-Jun-13 15:25N 49°24' E 001°01'0 0.0
2018-Jun-13 14:55N 49°24' E 001°01'0 0.0
2018-Jun-13 14:25N 49°23' E 001°01'0 0.0
2018-Jun-13 13:56N 49°24' E 001°01'0 0.0
2018-Jun-13 13:27N 49°24' E 001°01'0 0.0
2018-Jun-13 12:57N 49°24' E 001°01'0 0.0
2018-Jun-13 12:27N 49°24' E 001°01'0 0.0
2018-Jun-13 11:51N 49°24' E 001°01'0 0.0
2018-Jun-13 11:30N 49°24' E 001°01'0 0.0
2018-Jun-13 10:57N 49°24' E 001°01'0 0.0
2018-Jun-13 10:27N 49°24' E 001°01'0 0.0
2018-Jun-13 09:57N 49°24' E 001°01'0 0.0
2018-Jun-13 09:27N 49°24' E 001°01'0 0.0
2018-Jun-13 08:57N 49°24' E 001°01'0 0.0
2018-Jun-13 08:27N 49°24' E 001°01'0 0.0
2018-Jun-13 07:57N 49°24' E 001°01'0 0.0
2018-Jun-13 07:20N 49°24' E 001°01'0 0.0
2018-Jun-13 06:57N 49°24' E 001°01'0 0.0
2018-Jun-13 06:27N 49°24' E 001°01'0 0.0
2018-Jun-13 05:57N 49°24' E 001°01'0 0.0
2018-Jun-13 05:21N 49°24' E 001°01'0 0.0
2018-Jun-13 04:57N 49°24' E 001°01'0 0.0
2018-Jun-13 04:27N 49°24' E 001°01'0 0.0
2018-Jun-13 03:57N 49°24' E 001°01'0 0.0
2018-Jun-13 03:27N 49°24' E 001°01'0 0.0
2018-Jun-13 02:57N 49°24' E 001°01'0 0.0
2018-Jun-13 02:27N 49°24' E 001°01'0 0.0
2018-Jun-13 01:57N 49°24' E 001°01'0 0.0
2018-Jun-13 01:27N 49°24' E 001°01'0 0.0
2018-Jun-13 01:00N 49°23' E 001°01'0 0.0
2018-Jun-13 00:27N 49°24' E 001°01'0 0.0
2018-Jun-13 00:00N 49°24' E 001°01'0 0.0
2018-Jun-12 23:30N 49°24' E 001°01'0 0.0
2018-Jun-12 23:00N 49°24' E 001°01'0 0.0
2018-Jun-12 22:27N 49°24' E 001°01'0 0.0
2018-Jun-12 21:57N 49°24' E 001°01'0 0.0
2018-Jun-12 21:27N 49°24' E 001°01'0 0.0
2018-Jun-12 20:57N 49°24' E 001°01'0 0.0
2018-Jun-12 20:27N 49°24' E 001°01'0 0.0
2018-Jun-12 19:57N 49°23' E 001°01'0 0.0
2018-Jun-12 19:09N 49°24' E 001°01'0 0.0
2018-Jun-12 18:57N 49°24' E 001°01'0 0.0
2018-Jun-12 18:27N 49°24' E 001°01'0 0.0
2018-Jun-12 17:57N 49°24' E 001°01'0 0.0
2018-Jun-12 17:27N 49°24' E 001°01'0 0.0
2018-Jun-12 16:57N 49°24' E 001°01'0 0.0
2018-Jun-12 16:27N 49°24' E 001°01'0 0.0
2018-Jun-12 15:57N 49°24' E 001°01'0 0.0
2018-Jun-12 15:27N 49°24' E 001°01'0 0.0
2018-Jun-12 14:57N 49°24' E 001°01'0 0.0
2018-Jun-12 14:27N 49°24' E 001°01'0 0.0
2018-Jun-12 14:00N 49°24' E 001°01'0 0.0
2018-Jun-12 13:30N 49°23' E 001°01'0 0.0
2018-Jun-12 13:00N 49°23' E 001°01'2 4.8
2018-Jun-12 12:30N 49°21' E 000°59'3 6.8
2018-Jun-12 12:00N 49°24' E 000°55'510.0
2018-Jun-12 11:30N 49°29' E 000°55'4 7.6
2018-Jun-12 11:00N 49°26' E 000°52'2 4.7
2018-Jun-12 10:30N 49°25' E 000°48'5 9.0
2018-Jun-12 10:00N 49°29' E 000°46'4 8.1
2018-Jun-12 09:30N 49°30' E 000°40'510.4
2018-Jun-12 09:00N 49°26' E 000°37'6 9.5
2018-Jun-12 08:20N 49°29' E 000°28'310.5
2018-Jun-12 08:00N 49°27' E 000°24'510.6
2018-Jun-12 07:30N 49°26' E 000°16'510.2
2018-Jun-12 07:00N 49°26' E 000°08'5 9.6
2018-Jun-12 06:30N 49°28' E 000°01'5 9.1
2018-Jun-12 06:00N 49°29' W 000°06'4 8.2
2018-Jun-12 05:30N 49°31' W 000°12'4 8.0
2018-Jun-12 05:00N 49°32' W 000°17'4 7.8
2018-Jun-12 04:30N 49°34' W 000°22'4 8.0
2018-Jun-12 04:00N 49°38' W 000°26'4 7.4
2018-Jun-12 03:30N 49°41' W 000°27'4 7.8
2018-Jun-12 02:59N 49°45' W 000°25'5 8.0
2018-Jun-12 02:19N 49°50' W 000°22'113 8.6
2018-Jun-11 13:18N 51°11' E 001°42'3 9.1
2018-Jun-11 13:00N 51°13' E 001°45'4 8.5
2018-Jun-11 12:30N 51°16' E 001°49'4 8.1
2018-Jun-11 12:00N 51°19' E 001°53'6 8.0
2018-Jun-11 11:18N 51°24' E 001°57'3 8.1
2018-Jun-11 10:59N 51°26' E 001°59'5 8.4
2018-Jun-11 10:26N 51°30' E 002°04'4 8.7
2018-Jun-11 09:59N 51°33' E 002°09'4 8.8
2018-Jun-11 09:29N 51°36' E 002°13'5310.8
2018-Jun-11 04:35N 52°17' E 003°07'1110.0
2018-Jun-11 03:28N 52°26' E 003°17'5 9.4
2018-Jun-11 02:59N 52°30' E 003°21'14 8.9
2018-Jun-11 01:27N 52°41' E 003°36'10 8.5
2018-Jun-11 00:14N 52°49' E 003°47'177 9.0
2018-Jun-10 04:26N 54°00' E 008°19'5 8.6
2018-Jun-10 03:54N 53°59' E 008°26'4 9.3
2018-Jun-10 03:30N 53°58' E 008°32'510.3
2018-Jun-10 03:00N 53°56' E 008°40'712.7
2018-Jun-10 02:29N 53°51' E 008°47'612.7
2018-Jun-10 02:01N 53°51' E 008°57'612.6
2018-Jun-10 01:30N 53°53' E 009°07'1 2.7
2018-Jun-10 00:59N 53°54' E 009°09'3 5.5
2018-Jun-10 00:30N 53°56' E 009°12'14 8.8
2018-Jun-09 22:55N 54°08' E 009°21'4 9.0
2018-Jun-09 22:30N 54°10' E 009°26'4 8.5
2018-Jun-09 22:00N 54°12' E 009°33'2 3.9
2018-Jun-09 21:30N 54°13' E 009°36'4 7.0
2018-Jun-09 21:00N 54°16' E 009°38'4 6.8
2018-Jun-09 20:26N 54°19' E 009°43'  
Track history (hours):
 
Tides and Currents Weather Stations Pressure Air Temp Water Temp Dewpoint Dewpoint Depression Visibility Wind Speed Wind Dir Waves Ship Positions

Meike-b

Last reported at 2018-Jun-19 19:37 UTC. Time now 2018-Jun-21 12:23 UTC.
Position N 38°58' W 010°05'.

Length 96 m; draft 5.5 m.

Type: Cargo ship. MMSI: 304958000.

Date/timePositionNaut miles runAvg speedWind from/ knotsBaromVisibWave heightAir tempDewpointWater temp
2018-Jun-19 19:37N 38°58' W 010°05'  
2018-Jun-15 21:58N 49°40' W 000°46'4 7.5
2018-Jun-15 21:30N 49°39' W 000°41'4 7.3
2018-Jun-15 21:00N 49°38' W 000°36'4 7.1
2018-Jun-15 20:30N 49°36' W 000°31'4 7.3
2018-Jun-15 20:00N 49°35' W 000°26'4 7.8
2018-Jun-15 19:30N 49°33' W 000°20'4 8.7
2018-Jun-15 19:00N 49°31' W 000°14'5 9.6
2018-Jun-15 18:30N 49°30' W 000°07'5 9.7
2018-Jun-15 18:01N 49°28' W 000°00'510.8
2018-Jun-15 17:30N 49°26' E 000°08'612.8
2018-Jun-15 17:00N 49°26' E 000°17'612.5
2018-Jun-15 16:31N 49°28' E 000°27'5 9.8
2018-Jun-15 16:01N 49°27' E 000°34'5 9.4
2018-Jun-15 15:30N 49°29' E 000°40'4 8.5
2018-Jun-15 15:00N 49°30' E 000°46'4 8.8
2018-Jun-15 14:30N 49°26' E 000°48'3 6.6
2018-Jun-15 14:00N 49°24' E 000°52'4 8.0
2018-Jun-15 13:30N 49°28' E 000°52'3 5.5
2018-Jun-15 13:00N 49°28' E 000°56'4 7.9
2018-Jun-15 12:30N 49°24' E 000°56'3 6.6
2018-Jun-15 12:00N 49°21' E 000°57'3 7.2
2018-Jun-15 11:30N 49°24' E 001°01'3 6.1
2018-Jun-15 11:01N 49°26' E 001°03'0 0.2
2018-Jun-15 10:29N 49°26' E 001°03'0 0.0
2018-Jun-15 09:50N 49°26' E 001°03'0 0.0
2018-Jun-15 09:29N 49°26' E 001°03'0 0.0
2018-Jun-15 08:59N 49°26' E 001°03'0 0.0
2018-Jun-15 08:29N 49°26' E 001°03'0 0.0
2018-Jun-15 07:59N 49°26' E 001°03'0 0.0
2018-Jun-15 07:28N 49°26' E 001°03'0 0.0
2018-Jun-15 06:59N 49°26' E 001°03'0 0.0
2018-Jun-15 06:22N 49°26' E 001°03'0 0.0
2018-Jun-15 05:52N 49°26' E 001°03'0 0.0
2018-Jun-15 05:28N 49°26' E 001°03'0 0.0
2018-Jun-15 04:58N 49°26' E 001°03'0 0.0
2018-Jun-15 04:28N 49°26' E 001°03'0 0.0
2018-Jun-15 03:58N 49°26' E 001°03'0 0.0
2018-Jun-15 03:28N 49°26' E 001°03'0 0.0
2018-Jun-15 02:58N 49°26' E 001°03'0 0.0
2018-Jun-15 02:28N 49°26' E 001°03'0 0.0
2018-Jun-15 01:58N 49°26' E 001°03'0 0.0
2018-Jun-15 01:28N 49°26' E 001°03'0 0.0
2018-Jun-15 00:52N 49°26' E 001°03'0 0.0
2018-Jun-15 00:28N 49°26' E 001°03'0 0.0
2018-Jun-14 23:55N 49°26' E 001°03'0 0.0
2018-Jun-14 23:28N 49°26' E 001°03'0 0.0
2018-Jun-14 22:58N 49°26' E 001°03'0 0.0
2018-Jun-14 22:28N 49°26' E 001°03'0 0.0
2018-Jun-14 21:58N 49°26' E 001°03'0 0.0
2018-Jun-14 21:28N 49°26' E 001°03'0 0.0
2018-Jun-14 20:58N 49°26' E 001°03'0 0.0
2018-Jun-14 20:25N 49°26' E 001°03'0 0.0
2018-Jun-14 19:58N 49°26' E 001°03'0 0.0
2018-Jun-14 19:28N 49°26' E 001°03'0 0.0
2018-Jun-14 18:58N 49°26' E 001°03'0 0.0
2018-Jun-14 18:28N 49°26' E 001°03'0 0.0
2018-Jun-14 17:58N 49°26' E 001°03'0 1.0
2018-Jun-14 17:30N 49°26' E 001°02'3 5.1
2018-Jun-14 17:00N 49°24' E 001°01'0 0.5
2018-Jun-14 16:26N 49°24' E 001°01'0 0.0
2018-Jun-14 15:56N 49°23' E 001°01'0 0.0
2018-Jun-14 15:26N 49°24' E 001°01'0 0.0
2018-Jun-14 14:56N 49°24' E 001°01'0 0.0
2018-Jun-14 14:26N 49°24' E 001°01'0 0.0
2018-Jun-14 13:56N 49°24' E 001°01'0 0.0
2018-Jun-14 13:25N 49°24' E 001°01'0 0.0
2018-Jun-14 12:55N 49°24' E 001°01'0 0.0
2018-Jun-14 12:25N 49°24' E 001°01'0 0.0
2018-Jun-14 11:58N 49°23' E 001°01'0 0.0
2018-Jun-14 11:25N 49°24' E 001°01'0 0.0
2018-Jun-14 10:55N 49°24' E 001°01'0 0.0
2018-Jun-14 10:25N 49°24' E 001°01'0 0.0
2018-Jun-14 09:55N 49°24' E 001°01'0 0.0
2018-Jun-14 09:25N 49°24' E 001°01'0 0.0
2018-Jun-14 08:55N 49°24' E 001°01'0 0.0
2018-Jun-14 08:28N 49°24' E 001°01'0 0.0
2018-Jun-14 07:55N 49°24' E 001°01'0 0.0
2018-Jun-14 07:28N 49°24' E 001°01'0 0.0
2018-Jun-14 06:58N 49°24' E 001°01'0 0.0
2018-Jun-14 06:25N 49°24' E 001°01'0 0.0
2018-Jun-14 05:58N 49°24' E 001°01'0 0.0
2018-Jun-14 05:28N 49°24' E 001°01'0 0.0
2018-Jun-14 04:58N 49°23' E 001°01'0 0.0
2018-Jun-14 04:28N 49°23' E 001°01'0 0.0
2018-Jun-14 03:58N 49°23' E 001°01'0 0.0
2018-Jun-14 03:28N 49°24' E 001°01'0 0.0
2018-Jun-14 02:58N 49°24' E 001°01'0 0.0
2018-Jun-14 02:28N 49°24' E 001°01'0 0.0
2018-Jun-14 01:55N 49°24' E 001°01'0 0.0
2018-Jun-14 01:28N 49°24' E 001°01'0 0.0
2018-Jun-14 00:58N 49°24' E 001°01'0 0.0
2018-Jun-14 00:28N 49°24' E 001°01'0 0.0
2018-Jun-13 23:58N 49°24' E 001°01'0 0.0
2018-Jun-13 23:28N 49°24' E 001°01'0 0.0
2018-Jun-13 22:58N 49°24' E 001°01'0 0.0
2018-Jun-13 22:25N 49°24' E 001°01'0 0.0
2018-Jun-13 21:55N 49°24' E 001°01'0 0.0
2018-Jun-13 21:28N 49°24' E 001°01'0 0.0
2018-Jun-13 20:49N 49°24' E 001°01'0 0.0
2018-Jun-13 20:28N 49°24' E 001°01'0 0.0
2018-Jun-13 19:55N 49°24' E 001°01'0 0.0
2018-Jun-13 19:25N 49°24' E 001°01'0 0.0
2018-Jun-13 18:58N 49°24' E 001°01'0 0.0
2018-Jun-13 18:19N 49°24' E 001°01'0 0.0
2018-Jun-13 17:55N 49°24' E 001°01'0 0.0
2018-Jun-13 17:28N 49°23' E 001°01'0 0.0
2018-Jun-13 16:58N 49°24' E 001°01'0 0.0
2018-Jun-13 16:25N 49°24' E 001°01'0 0.0
2018-Jun-13 15:55N 49°24' E 001°01'0 0.0
2018-Jun-13 15:25N 49°24' E 001°01'0 0.0
2018-Jun-13 14:55N 49°24' E 001°01'0 0.0
2018-Jun-13 14:25N 49°23' E 001°01'0 0.0
2018-Jun-13 13:56N 49°24' E 001°01'0 0.0
2018-Jun-13 13:27N 49°24' E 001°01'0 0.0
2018-Jun-13 12:57N 49°24' E 001°01'0 0.0
2018-Jun-13 12:27N 49°24' E 001°01'0 0.0
2018-Jun-13 11:51N 49°24' E 001°01'0 0.0
2018-Jun-13 11:30N 49°24' E 001°01'0 0.0
2018-Jun-13 10:57N 49°24' E 001°01'0 0.0
2018-Jun-13 10:27N 49°24' E 001°01'0 0.0
2018-Jun-13 09:57N 49°24' E 001°01'0 0.0
2018-Jun-13 09:27N 49°24' E 001°01'0 0.0
2018-Jun-13 08:57N 49°24' E 001°01'0 0.0
2018-Jun-13 08:27N 49°24' E 001°01'0 0.0
2018-Jun-13 07:57N 49°24' E 001°01'0 0.0
2018-Jun-13 07:20N 49°24' E 001°01'0 0.0
2018-Jun-13 06:57N 49°24' E 001°01'0 0.0
2018-Jun-13 06:27N 49°24' E 001°01'0 0.0
2018-Jun-13 05:57N 49°24' E 001°01'0 0.0
2018-Jun-13 05:21N 49°24' E 001°01'0 0.0
2018-Jun-13 04:57N 49°24' E 001°01'0 0.0
2018-Jun-13 04:27N 49°24' E 001°01'0 0.0
2018-Jun-13 03:57N 49°24' E 001°01'0 0.0
2018-Jun-13 03:27N 49°24' E 001°01'0 0.0
2018-Jun-13 02:57N 49°24' E 001°01'0 0.0
2018-Jun-13 02:27N 49°24' E 001°01'0 0.0
2018-Jun-13 01:57N 49°24' E 001°01'0 0.0
2018-Jun-13 01:27N 49°24' E 001°01'0 0.0
2018-Jun-13 01:00N 49°23' E 001°01'0 0.0
2018-Jun-13 00:27N 49°24' E 001°01'0 0.0
2018-Jun-13 00:00N 49°24' E 001°01'0 0.0
2018-Jun-12 23:30N 49°24' E 001°01'0 0.0
2018-Jun-12 23:00N 49°24' E 001°01'0 0.0
2018-Jun-12 22:27N 49°24' E 001°01'0 0.0
2018-Jun-12 21:57N 49°24' E 001°01'0 0.0
2018-Jun-12 21:27N 49°24' E 001°01'0 0.0
2018-Jun-12 20:57N 49°24' E 001°01'0 0.0
2018-Jun-12 20:27N 49°24' E 001°01'0 0.0
2018-Jun-12 19:57N 49°23' E 001°01'0 0.0
2018-Jun-12 19:09N 49°24' E 001°01'0 0.0
2018-Jun-12 18:57N 49°24' E 001°01'0 0.0
2018-Jun-12 18:27N 49°24' E 001°01'0 0.0
2018-Jun-12 17:57N 49°24' E 001°01'0 0.0
2018-Jun-12 17:27N 49°24' E 001°01'0 0.0
2018-Jun-12 16:57N 49°24' E 001°01'0 0.0
2018-Jun-12 16:27N 49°24' E 001°01'0 0.0
2018-Jun-12 15:57N 49°24' E 001°01'0 0.0
2018-Jun-12 15:27N 49°24' E 001°01'0 0.0
2018-Jun-12 14:57N 49°24' E 001°01'0 0.0
2018-Jun-12 14:27N 49°24' E 001°01'0 0.0
2018-Jun-12 14:00N 49°24' E 001°01'0 0.0
2018-Jun-12 13:30N 49°23' E 001°01'0 0.0
2018-Jun-12 13:00N 49°23' E 001°01'2 4.8
2018-Jun-12 12:30N 49°21' E 000°59'3 6.8
2018-Jun-12 12:00N 49°24' E 000°55'510.0
2018-Jun-12 11:30N 49°29' E 000°55'4 7.6
2018-Jun-12 11:00N 49°26' E 000°52'2 4.7
2018-Jun-12 10:30N 49°25' E 000°48'5 9.0
2018-Jun-12 10:00N 49°29' E 000°46'4 8.1
2018-Jun-12 09:30N 49°30' E 000°40'510.4
2018-Jun-12 09:00N 49°26' E 000°37'6 9.5
2018-Jun-12 08:20N 49°29' E 000°28'310.5
2018-Jun-12 08:00N 49°27' E 000°24'510.6
2018-Jun-12 07:30N 49°26' E 000°16'510.2
2018-Jun-12 07:00N 49°26' E 000°08'5 9.6
2018-Jun-12 06:30N 49°28' E 000°01'5 9.1
2018-Jun-12 06:00N 49°29' W 000°06'4 8.2
2018-Jun-12 05:30N 49°31' W 000°12'4 8.0
2018-Jun-12 05:00N 49°32' W 000°17'4 7.8
2018-Jun-12 04:30N 49°34' W 000°22'4 8.0
2018-Jun-12 04:00N 49°38' W 000°26'4 7.4
2018-Jun-12 03:30N 49°41' W 000°27'4 7.8
2018-Jun-12 02:59N 49°45' W 000°25'5 8.0
2018-Jun-12 02:19N 49°50' W 000°22'113 8.6
2018-Jun-11 13:18N 51°11' E 001°42'3 9.1
2018-Jun-11 13:00N 51°13' E 001°45'4 8.5
2018-Jun-11 12:30N 51°16' E 001°49'4 8.1
2018-Jun-11 12:00N 51°19' E 001°53'6 8.0
2018-Jun-11 11:18N 51°24' E 001°57'3 8.1
2018-Jun-11 10:59N 51°26' E 001°59'5 8.4
2018-Jun-11 10:26N 51°30' E 002°04'4 8.7
2018-Jun-11 09:59N 51°33' E 002°09'4 8.8
2018-Jun-11 09:29N 51°36' E 002°13'5310.8
2018-Jun-11 04:35N 52°17' E 003°07'1110.0
2018-Jun-11 03:28N 52°26' E 003°17'5 9.4
2018-Jun-11 02:59N 52°30' E 003°21'14 8.9
2018-Jun-11 01:27N 52°41' E 003°36'10 8.5
2018-Jun-11 00:14N 52°49' E 003°47'177 9.0
2018-Jun-10 04:26N 54°00' E 008°19'5 8.6
2018-Jun-10 03:54N 53°59' E 008°26'4 9.3
2018-Jun-10 03:30N 53°58' E 008°32'510.3
2018-Jun-10 03:00N 53°56' E 008°40'712.7
2018-Jun-10 02:29N 53°51' E 008°47'612.7
2018-Jun-10 02:01N 53°51' E 008°57'612.6
2018-Jun-10 01:30N 53°53' E 009°07'1 2.7
2018-Jun-10 00:59N 53°54' E 009°09'3 5.5
2018-Jun-10 00:30N 53°56' E 009°12'14 8.8
2018-Jun-09 22:55N 54°08' E 009°21'4 9.0
2018-Jun-09 22:30N 54°10' E 009°26'4 8.5
2018-Jun-09 22:00N 54°12' E 009°33'2 3.9
2018-Jun-09 21:30N 54°13' E 009°36'4 7.0
2018-Jun-09 21:00N 54°16' E 009°38'4 6.8
2018-Jun-09 20:26N 54°19' E 009°43'  

Dump ship's entire track history